Time;durP1;ratioP1;P1;durP2;ratioP2;P2;SDS_P1;SDS_P2;PMS_P1;PMS_P2;Temp;Humidity;BMP_temperature;BMP_pressure;BME280_temperature;BME280_humidity;BME280_pressure;Samples;Min_cycle;Max_cycle;Signal;HPM_P1;HPM_P2
2023/03/29 00:01:35;;;;;;;2.00;1.83;;;6.40;68.70;;;;;;5033925;28;20252;-60
2023/03/29 00:04:03;;;;;;;4.18;1.70;;;6.40;68.40;;;;;;5034235;28;20572;-60
2023/03/29 00:06:31;;;;;;;1.83;1.73;;;6.40;68.30;;;;;;5033932;28;20199;-60
2023/03/29 00:08:58;;;;;;;2.45;1.80;;;6.40;68.20;;;;;;5033911;28;20716;-60
2023/03/29 00:11:26;;;;;;;3.00;1.80;;;6.40;68.50;;;;;;5034276;28;20186;-60
2023/03/29 00:13:53;;;;;;;2.72;1.88;;;6.40;68.40;;;;;;5034094;28;20214;-60
2023/03/29 00:16:20;;;;;;;2.08;1.70;;;6.40;68.20;;;;;;5033909;28;20226;-60
2023/03/29 00:18:47;;;;;;;4.72;1.85;;;6.40;68.20;;;;;;5034296;28;20218;-60
2023/03/29 00:21:15;;;;;;;5.65;1.58;;;6.40;68.00;;;;;;5033844;28;20672;-59
2023/03/29 00:23:42;;;;;;;4.50;1.80;;;6.40;67.80;;;;;;5033443;28;20211;-60
2023/03/29 00:26:09;;;;;;;2.10;1.73;;;6.30;67.60;;;;;;5034095;28;20205;-60
2023/03/29 00:28:36;;;;;;;3.58;1.85;;;6.30;68.30;;;;;;5037179;28;20198;-60
2023/03/29 00:31:09;;;;;;;3.53;1.85;;;6.40;67.70;;;;;;5037390;28;20205;-60
2023/03/29 00:33:36;;;;;;;3.47;2.50;;;6.30;67.60;;;;;;5037518;28;20206;-60
2023/03/29 00:36:03;;;;;;;5.10;1.83;;;6.30;67.70;;;;;;5037423;28;20731;-60
2023/03/29 00:38:32;;;;;;;3.20;2.28;;;6.30;67.80;;;;;;5037022;28;20210;-61
2023/03/29 00:40:59;;;;;;;3.92;2.75;;;6.30;68.00;;;;;;5037168;28;20298;-61
2023/03/29 00:43:26;;;;;;;5.78;1.80;;;6.30;68.00;;;;;;5037124;28;20209;-60
2023/03/29 00:45:53;;;;;;;5.57;1.88;;;6.30;68.10;;;;;;5036876;28;20208;-59
2023/03/29 00:48:22;;;;;;;2.05;1.65;;;6.30;68.20;;;;;;5036998;28;20202;-61
2023/03/29 00:50:53;;;;;;;3.60;2.22;;;6.30;68.40;;;;;;5036708;28;20202;-60
2023/03/29 00:53:26;;;;;;;2.53;1.83;;;6.30;68.90;;;;;;5036866;28;20187;-60
2023/03/29 00:55:58;;;;;;;4.43;2.05;;;6.30;68.80;;;;;;5036323;28;20684;-60
2023/03/29 00:58:30;;;;;;;3.92;2.88;;;6.30;68.80;;;;;;5036596;28;20187;-61
2023/03/29 01:01:01;;;;;;;5.03;2.45;;;6.30;69.10;;;;;;5036879;28;20194;-60
2023/03/29 01:03:33;;;;;;;4.65;1.95;;;6.30;68.90;;;;;;5036367;28;20186;-61
2023/03/29 01:06:04;;;;;;;5.78;2.10;;;6.30;68.80;;;;;;5036624;28;20179;-61
2023/03/29 01:08:34;;;;;;;2.80;2.30;;;6.30;68.60;;;;;;5036339;28;20187;-60
2023/03/29 01:11:08;;;;;;;7.20;2.67;;;6.40;68.40;;;;;;5036677;28;20222;-59
2023/03/29 01:13:39;;;;;;;4.20;1.63;;;6.40;68.30;;;;;;5036857;28;20191;-60
2023/03/29 01:16:08;;;;;;;4.40;2.22;;;6.40;68.20;;;;;;5036885;28;20217;-62
2023/03/29 01:18:35;;;;;;;3.13;1.95;;;6.40;68.10;;;;;;5042424;28;20750;-60
2023/03/29 01:21:15;;;;;;;4.38;2.05;;;6.40;68.20;;;;;;5044795;28;20206;-59
2023/03/29 01:24:15;;;;;;;3.33;1.92;;;6.40;68.00;;;;;;5047038;28;20218;-59
2023/03/29 01:26:52;;;;;;;3.92;2.15;;;6.40;68.20;;;;;;5030790;28;20209;-59
2023/03/29 01:29:25;;;;;;;4.32;2.20;;;6.40;68.50;;;;;;5038196;28;20622;-61
2023/03/29 01:31:57;;;;;;;3.00;1.92;;;6.30;68.70;;;;;;5037136;28;20561;-61
2023/03/29 01:34:30;;;;;;;5.22;2.25;;;6.30;68.90;;;;;;5036495;28;20187;-60
2023/03/29 01:37:03;;;;;;;3.13;2.10;;;6.30;69.30;;;;;;5036211;28;20669;-60
2023/03/29 01:39:33;;;;;;;5.20;2.05;;;6.30;69.50;;;;;;5035667;28;20236;-59
2023/03/29 01:42:08;;;;;;;5.90;2.60;;;6.20;69.50;;;;;;5036006;28;20213;-60
2023/03/29 01:44:46;;;;;;;4.80;2.15;;;6.30;69.80;;;;;;5036303;28;20582;-59
2023/03/29 01:47:20;;;;;;;4.05;2.28;;;6.30;70.00;;;;;;5036370;28;20186;-61
2023/03/29 01:49:53;;;;;;;3.15;2.35;;;6.30;70.40;;;;;;5036501;28;20228;-61
2023/03/29 01:52:25;;;;;;;4.97;2.80;;;6.30;71.50;;;;;;5035943;28;20191;-60
2023/03/29 01:55:00;;;;;;;5.03;3.33;;;6.20;71.60;;;;;;5035932;28;20194;-60
2023/03/29 01:57:28;;;;;;;4.93;2.75;;;6.20;72.50;;;;;;5035326;28;20212;-60
2023/03/29 01:59:58;;;;;;;3.92;2.78;;;6.20;73.40;;;;;;5035689;28;20246;-60
2023/03/29 02:02:27;;;;;;;5.05;2.85;;;6.20;74.50;;;;;;5035797;28;20197;-60
2023/03/29 02:04:56;;;;;;;3.60;2.63;;;6.20;75.40;;;;;;5035293;28;20574;-60
2023/03/29 02:07:25;;;;;;;3.60;2.60;;;6.20;77.40;;;;;;5035489;28;20288;-60
2023/03/29 02:09:54;;;;;;;5.32;3.03;;;6.20;77.90;;;;;;5035637;28;20608;-62
2023/03/29 02:12:21;;;;;;;5.15;3.38;;;6.20;78.90;;;;;;5036222;28;20202;-61
2023/03/29 02:14:48;;;;;;;5.60;3.00;;;6.20;80.30;;;;;;5035943;28;20237;-60
2023/03/29 02:17:18;;;;;;;3.80;2.42;;;6.20;81.70;;;;;;5035683;28;20223;-61
2023/03/29 02:19:48;;;;;;;3.45;2.92;;;6.20;83.20;;;;;;5035635;28;20254;-61
2023/03/29 02:22:21;;;;;;;4.43;2.80;;;6.20;84.90;;;;;;5035716;28;20566;-61
2023/03/29 02:24:50;;;;;;;4.13;3.60;;;6.10;86.20;;;;;;5035215;28;20197;-60
2023/03/29 02:27:16;;;;;;;6.93;6.13;;;6.10;87.50;;;;;;5036102;28;20591;-60
2023/03/29 02:29:45;;;;;;;6.50;4.20;;;6.10;88.90;;;;;;5035258;28;20799;-60
2023/03/29 02:32:20;;;;;;;5.32;3.10;;;6.10;90.00;;;;;;5035412;28;20249;-60
2023/03/29 02:34:52;;;;;;;4.70;2.22;;;6.00;90.30;;;;;;5035573;28;20182;-60
2023/03/29 02:37:20;;;;;;;3.88;2.78;;;6.00;90.70;;;;;;5035131;28;20397;-60
2023/03/29 02:39:49;;;;;;;6.80;2.65;;;6.00;90.90;;;;;;5035598;28;20226;-59
2023/03/29 02:42:19;;;;;;;3.42;2.83;;;6.00;91.10;;;;;;5035247;28;20203;-60
2023/03/29 02:44:49;;;;;;;4.05;2.40;;;6.00;91.40;;;;;;5034910;28;20245;-60
2023/03/29 02:47:22;;;;;;;7.90;2.45;;;6.00;91.60;;;;;;5035062;28;20245;-61
2023/03/29 02:49:49;;;;;;;4.57;3.05;;;6.00;91.90;;;;;;5033855;28;20255;-60
2023/03/29 02:52:21;;;;;;;4.70;2.95;;;5.90;92.10;;;;;;5035223;28;20645;-60
2023/03/29 02:54:50;;;;;;;8.27;3.08;;;5.90;92.30;;;;;;5035938;28;20186;-60
2023/03/29 02:57:20;;;;;;;3.60;3.05;;;5.90;92.60;;;;;;5035154;28;20263;-60
2023/03/29 02:59:47;;;;;;;5.95;2.83;;;5.90;92.90;;;;;;5035477;28;20222;-60
2023/03/29 03:02:16;;;;;;;3.45;2.58;;;5.90;93.20;;;;;;5036213;28;20264;-60
2023/03/29 03:04:44;;;;;;;3.95;2.72;;;5.80;93.60;;;;;;5036521;28;20560;-60
2023/03/29 03:07:12;;;;;;;3.45;2.55;;;5.80;94.20;;;;;;5036863;28;20616;-59
2023/03/29 03:09:39;;;;;;;5.20;3.28;;;5.70;94.70;;;;;;5037080;28;20234;-60
2023/03/29 03:12:06;;;;;;;5.35;3.10;;;5.60;95.30;;;;;;5035750;28;20198;-60
2023/03/29 03:14:33;;;;;;;4.00;3.13;;;5.60;95.90;;;;;;5035919;28;20340;-60
2023/03/29 03:17:00;;;;;;;6.20;3.58;;;5.70;96.50;;;;;;5035185;28;20223;-60
2023/03/29 03:19:26;;;;;;;6.70;2.92;;;5.70;96.90;;;;;;5035240;28;20225;-59
2023/03/29 03:21:55;;;;;;;7.68;2.88;;;5.70;97.20;;;;;;5035215;28;20310;-60
2023/03/29 03:24:22;;;;;;;5.78;3.25;;;5.70;97.40;;;;;;5034718;28;20688;-59
2023/03/29 03:26:49;;;;;;;3.50;3.20;;;5.70;97.80;;;;;;5036209;28;20198;-60
2023/03/29 03:29:16;;;;;;;6.22;3.05;;;5.70;98.20;;;;;;5036104;28;20226;-59
2023/03/29 03:31:43;;;;;;;4.18;2.90;;;5.70;98.10;;;;;;5035917;28;20210;-59
2023/03/29 03:34:10;;;;;;;4.55;3.25;;;5.70;98.40;;;;;;5035688;28;20205;-59
2023/03/29 03:36:37;;;;;;;5.72;3.05;;;5.70;98.70;;;;;;5035485;28;20241;-60
2023/03/29 03:39:06;;;;;;;4.32;3.53;;;5.70;99.00;;;;;;5035313;28;20292;-60
2023/03/29 03:41:33;;;;;;;5.07;3.03;;;5.70;99.10;;;;;;5035126;28;20241;-60
2023/03/29 03:44:00;;;;;;;7.45;3.95;;;5.70;99.30;;;;;;5034440;28;20206;-60
2023/03/29 03:46:27;;;;;;;5.05;3.22;;;5.70;99.50;;;;;;5036237;28;20248;-61
2023/03/29 03:48:54;;;;;;;12.05;3.83;;;5.70;99.80;;;;;;5035764;28;20222;-59
2023/03/29 03:51:21;;;;;;;5.15;4.20;;;5.70;99.90;;;;;;5035429;28;20213;-59
2023/03/29 03:53:47;;;;;;;3.63;3.33;;;5.70;99.90;;;;;;5036184;28;20214;-60
2023/03/29 03:56:16;;;;;;;4.70;3.00;;;5.70;99.90;;;;;;5034453;28;20211;-60
2023/03/29 03:58:43;;;;;;;4.60;3.47;;;5.70;99.90;;;;;;5033370;28;20542;-60
2023/03/29 04:01:10;;;;;;;4.60;4.20;;;5.80;99.90;;;;;;5032745;28;20289;-59
2023/03/29 04:03:37;;;;;;;8.40;4.40;;;5.80;99.90;;;;;;5033623;28;20311;-60
2023/03/29 04:06:05;;;;;;;4.35;3.78;;;5.70;99.90;;;;;;5033108;28;20238;-59
2023/03/29 04:11:27;;;;;;;3.85;3.55;;;5.70;99.90;;;;;;5139043;27;20562;-83
2023/03/29 04:13:56;;;;;;;4.40;3.97;;;5.70;99.90;;;;;;5143368;27;20228;-83
2023/03/29 04:16:23;;;;;;;5.75;4.20;;;5.70;99.90;;;;;;5153022;27;20195;-83
2023/03/29 04:18:50;;;;;;;4.68;4.00;;;5.60;99.90;;;;;;5144115;27;20223;-82
2023/03/29 04:21:17;;;;;;;5.47;4.53;;;5.60;99.90;;;;;;5151840;27;20219;-80
2023/03/29 04:23:45;;;;;;;5.75;4.40;;;5.60;99.90;;;;;;5152588;27;20199;-84
2023/03/29 04:26:13;;;;;;;6.45;4.65;;;5.60;99.90;;;;;;5151374;27;20203;-82
2023/03/29 04:28:42;;;;;;;6.28;4.70;;;5.60;99.90;;;;;;5149477;27;20203;-80
2023/03/29 04:31:10;;;;;;;5.95;4.53;;;5.60;99.90;;;;;;5153149;27;20223;-82
2023/03/29 04:33:38;;;;;;;8.30;4.88;;;5.60;99.90;;;;;;5156449;27;20235;-79
2023/03/29 04:36:05;;;;;;;4.70;4.20;;;5.60;99.90;;;;;;5156565;27;20179;-82
2023/03/29 04:38:34;;;;;;;5.47;4.32;;;5.60;99.90;;;;;;5150952;27;20187;-86
2023/03/29 04:41:02;;;;;;;9.68;5.45;;;5.60;99.90;;;;;;5150020;27;20649;-82
2023/03/29 04:43:30;;;;;;;7.30;4.82;;;5.60;99.90;;;;;;5146568;27;20214;-82
2023/03/29 04:45:58;;;;;;;5.47;4.93;;;5.60;99.90;;;;;;5141208;27;20201;-84
2023/03/29 04:48:25;;;;;;;5.55;4.70;;;5.70;99.90;;;;;;5140434;27;20207;-83
2023/03/29 04:50:53;;;;;;;8.60;6.10;;;5.70;99.90;;;;;;5140953;27;20223;-84
2023/03/29 04:53:21;;;;;;;6.28;5.15;;;5.70;99.90;;;;;;5139554;27;20209;-84
2023/03/29 04:55:48;;;;;;;6.68;4.75;;;5.70;99.90;;;;;;5140566;27;20199;-83
2023/03/29 04:58:15;;;;;;;9.77;5.53;;;5.70;99.90;;;;;;5138106;27;20199;-84
2023/03/29 05:00:42;;;;;;;7.45;5.90;;;5.70;99.90;;;;;;5140472;27;20218;-84
2023/03/29 05:03:13;;;;;;;6.90;5.07;;;5.70;99.90;;;;;;5138222;27;20195;-83
2023/03/29 05:05:40;;;;;;;7.70;4.93;;;5.70;99.90;;;;;;5137784;27;20188;-85
2023/03/29 05:08:09;;;;;;;8.10;5.43;;;5.70;99.90;;;;;;5138788;27;20199;-85
2023/03/29 05:10:36;;;;;;;7.32;5.15;;;5.80;99.90;;;;;;5138047;27;20227;-83
2023/03/29 05:13:03;;;;;;;6.78;5.60;;;5.80;99.90;;;;;;5139342;27;20290;-82
2023/03/29 05:15:30;;;;;;;5.63;5.13;;;5.80;99.90;;;;;;5129152;22;20228;-58
2023/03/29 05:17:59;;;;;;;8.00;5.43;;;5.80;99.90;;;;;;5069636;28;20578;-59
2023/03/29 05:20:28;;;;;;;6.97;5.20;;;5.80;99.90;;;;;;5070762;28;20551;-59
2023/03/29 05:22:55;;;;;;;13.00;5.80;;;5.80;99.90;;;;;;5056933;28;20288;-59
2023/03/29 05:25:24;;;;;;;7.60;5.50;;;5.80;99.90;;;;;;5056928;28;20222;-59
2023/03/29 05:27:51;;;;;;;5.93;5.05;;;5.80;99.90;;;;;;5056905;28;20205;-58
2023/03/29 05:30:19;;;;;;;10.20;5.63;;;5.80;99.90;;;;;;5057142;28;20304;-58
2023/03/29 05:32:46;;;;;;;6.95;5.40;;;5.80;99.90;;;;;;5057525;28;20245;-58
2023/03/29 05:35:13;;;;;;;8.95;5.05;;;5.90;99.90;;;;;;5057716;28;20233;-57
2023/03/29 05:37:41;;;;;;;6.40;5.47;;;5.90;99.90;;;;;;5058186;28;20216;-58
2023/03/29 05:40:09;;;;;;;7.63;6.38;;;5.90;99.90;;;;;;5057473;28;20207;-57
2023/03/29 05:42:37;;;;;;;6.90;5.30;;;5.90;99.90;;;;;;5058451;28;20210;-58
2023/03/29 05:45:05;;;;;;;6.45;4.80;;;6.00;99.90;;;;;;5055414;28;20707;-59
2023/03/29 05:47:32;;;;;;;5.90;5.10;;;6.00;99.90;;;;;;5056428;28;20201;-58
2023/03/29 05:49:58;;;;;;;6.90;5.28;;;6.10;99.90;;;;;;5058779;28;20217;-58
2023/03/29 05:52:26;;;;;;;8.57;5.03;;;6.10;99.90;;;;;;5059382;28;20198;-57
2023/03/29 05:54:55;;;;;;;8.00;5.80;;;6.20;99.90;;;;;;5058289;28;20256;-58
2023/03/29 05:57:22;;;;;;;10.00;5.22;;;6.20;99.90;;;;;;5059811;28;20279;-58
2023/03/29 05:59:49;;;;;;;7.68;5.95;;;6.20;99.90;;;;;;5059727;28;20210;-58
2023/03/29 06:02:17;;;;;;;10.13;5.57;;;6.20;99.90;;;;;;5060065;28;20205;-58
2023/03/29 06:04:44;;;;;;;7.53;6.05;;;6.20;99.90;;;;;;5060872;28;20225;-60
2023/03/29 06:07:11;;;;;;;7.15;5.78;;;6.30;99.90;;;;;;5059649;28;20205;-59
2023/03/29 06:09:39;;;;;;;8.70;5.03;;;6.30;99.90;;;;;;5060116;28;20284;-58
2023/03/29 06:12:08;;;;;;;6.65;6.05;;;6.40;99.90;;;;;;5060135;28;20205;-59
2023/03/29 06:14:36;;;;;;;6.43;5.82;;;6.50;99.90;;;;;;5058644;28;20205;-60
2023/03/29 06:17:03;;;;;;;7.28;6.03;;;6.50;99.90;;;;;;5057800;28;20186;-58
2023/03/29 06:19:30;;;;;;;11.00;5.32;;;6.60;99.90;;;;;;5060046;28;20305;-58
2023/03/29 06:21:57;;;;;;;7.85;6.50;;;6.50;99.90;;;;;;5056893;28;20569;-59
2023/03/29 06:24:30;;;;;;;6.53;5.40;;;6.60;99.90;;;;;;5059047;28;20208;-60
2023/03/29 06:26:57;;;;;;;6.60;5.90;;;6.60;99.90;;;;;;5060778;28;20636;-57
2023/03/29 06:29:25;;;;;;;7.03;5.47;;;6.70;99.90;;;;;;5058224;28;20228;-60
2023/03/29 06:32:24;;;;;;;6.72;5.30;;;6.80;99.90;;;;;;5059806;28;20229;-62
2023/03/29 06:34:51;;;;;;;6.47;5.13;;;6.90;99.90;;;;;;5054450;28;20232;-60
2023/03/29 06:37:17;;;;;;;7.45;5.25;;;7.00;99.90;;;;;;5057709;28;20208;-61
2023/03/29 06:39:44;;;;;;;5.63;5.00;;;7.00;99.90;;;;;;5057607;28;20689;-60
2023/03/29 06:42:11;;;;;;;11.25;5.43;;;7.10;99.90;;;;;;5057098;28;20241;-59
2023/03/29 06:44:40;;;;;;;15.02;6.20;;;7.20;99.90;;;;;;5054792;28;20205;-60
2023/03/29 06:47:07;;;;;;;6.13;5.63;;;7.40;99.90;;;;;;5054896;28;20217;-60
2023/03/29 06:49:33;;;;;;;7.53;5.22;;;7.50;99.90;;;;;;5054933;28;20256;-60
2023/03/29 06:52:01;;;;;;;10.82;7.70;;;7.60;99.90;;;;;;5055410;28;20226;-60
2023/03/29 06:54:27;;;;;;;8.43;5.60;;;7.80;99.90;;;;;;5054687;28;20212;-60
2023/03/29 06:56:54;;;;;;;6.22;4.78;;;8.00;99.90;;;;;;5055077;28;20197;-60
2023/03/29 06:59:21;;;;;;;6.70;5.15;;;8.20;99.90;;;;;;5055090;28;20251;-60
2023/03/29 07:01:51;;;;;;;7.28;5.30;;;8.30;99.90;;;;;;5054887;28;20630;-60
2023/03/29 07:04:18;;;;;;;5.63;5.00;;;8.50;99.90;;;;;;5055804;28;20212;-59
2023/03/29 07:06:47;;;;;;;7.85;4.85;;;8.70;99.60;;;;;;5055798;28;20232;-59
2023/03/29 07:09:15;;;;;;;6.53;5.40;;;8.70;98.80;;;;;;5056353;28;20206;-60
2023/03/29 07:11:42;;;;;;;5.90;4.70;;;8.70;98.60;;;;;;5056093;28;20253;-61
2023/03/29 07:14:09;;;;;;;4.78;4.30;;;8.70;98.50;;;;;;5055788;28;20202;-60
2023/03/29 07:16:36;;;;;;;6.15;5.40;;;8.70;98.20;;;;;;5055875;28;20658;-61
2023/03/29 07:19:05;;;;;;;5.65;4.78;;;8.70;98.00;;;;;;5056466;28;20291;-61
2023/03/29 07:21:32;;;;;;;8.05;5.32;;;8.60;97.80;;;;;;5060793;28;20201;-62
2023/03/29 07:24:00;;;;;;;8.88;4.93;;;8.60;97.60;;;;;;5060193;28;20237;-61
2023/03/29 07:26:27;;;;;;;5.85;5.00;;;8.60;97.50;;;;;;5060837;28;20221;-60
2023/03/29 07:28:55;;;;;;;6.47;5.32;;;8.60;97.50;;;;;;5059247;28;20560;-64
2023/03/29 07:31:22;;;;;;;6.95;4.65;;;8.60;97.10;;;;;;5058792;28;20213;-63
2023/03/29 07:33:51;;;;;;;6.18;5.57;;;8.60;96.90;;;;;;5056452;28;20238;-62
2023/03/29 07:36:19;;;;;;;6.90;5.30;;;8.60;97.20;;;;;;5056508;28;20603;-63
2023/03/29 07:38:47;;;;;;;13.48;5.55;;;8.60;97.10;;;;;;5056553;28;20210;-63
2023/03/29 07:41:14;;;;;;;7.63;4.90;;;8.70;97.10;;;;;;5055908;28;20198;-61
2023/03/29 07:43:41;;;;;;;5.40;4.85;;;8.80;96.80;;;;;;5055844;28;20725;-60
2023/03/29 07:46:08;;;;;;;5.25;4.75;;;8.90;96.50;;;;;;5056290;28;20253;-61
2023/03/29 07:48:44;;;;;;;5.97;4.75;;;9.00;96.10;;;;;;5056107;28;20205;-61
2023/03/29 07:51:10;;;;;;;6.10;5.00;;;9.10;95.70;;;;;;5057053;28;20297;-61
2023/03/29 07:53:39;;;;;;;7.22;5.55;;;9.10;95.50;;;;;;5055899;28;20681;-63
2023/03/29 07:56:06;;;;;;;6.20;4.43;;;9.10;95.40;;;;;;5055046;28;20221;-60
2023/03/29 07:58:33;;;;;;;5.63;5.03;;;9.20;95.10;;;;;;5054168;28;20451;-61
2023/03/29 08:01:00;;;;;;;6.70;5.20;;;9.20;94.90;;;;;;5053814;28;20530;-63
2023/03/29 08:03:27;;;;;;;6.57;4.50;;;9.10;94.50;;;;;;5053334;28;20456;-59
2023/03/29 08:05:54;;;;;;;7.05;5.35;;;9.10;94.50;;;;;;5053593;28;20226;-65
2023/03/29 08:08:21;;;;;;;4.97;4.40;;;9.00;94.60;;;;;;5053793;28;20202;-62
2023/03/29 08:10:50;;;;;;;4.97;4.47;;;9.00;94.80;;;;;;5056207;28;20636;-61
2023/03/29 08:13:17;;;;;;;4.78;4.25;;;9.10;94.80;;;;;;5065089;28;20483;-59
2023/03/29 08:15:47;;;;;;;11.88;5.03;;;9.10;94.40;;;;;;5053065;28;20238;-61
2023/03/29 08:18:14;;;;;;;5.35;4.85;;;9.10;94.20;;;;;;5053401;28;20228;-62
2023/03/29 08:20:41;;;;;;;6.90;5.30;;;9.20;94.50;;;;;;5052886;28;20197;-61
2023/03/29 08:23:08;;;;;;;8.57;5.13;;;9.30;94.40;;;;;;5052806;28;20497;-60
2023/03/29 08:25:35;;;;;;;8.18;5.20;;;9.40;94.20;;;;;;5053235;28;20478;-62
2023/03/29 08:28:03;;;;;;;6.53;4.60;;;9.60;93.80;;;;;;5053482;28;20197;-62
2023/03/29 08:30:30;;;;;;;5.20;4.40;;;9.70;93.30;;;;;;5052975;28;20448;-61
2023/03/29 08:32:57;;;;;;;4.40;4.00;;;9.80;92.60;;;;;;5053228;28;20454;-61
2023/03/29 08:35:24;;;;;;;4.37;3.97;;;9.80;92.20;;;;;;5052834;28;21055;-61
2023/03/29 08:37:51;;;;;;;7.00;4.23;;;9.80;91.50;;;;;;5053335;28;20447;-60
2023/03/29 08:40:21;;;;;;;4.30;3.90;;;9.70;91.70;;;;;;5053311;28;20531;-60
2023/03/29 08:43:00;;;;;;;5.07;4.57;;;9.70;91.60;;;;;;5053011;28;20451;-59
2023/03/29 08:45:34;;;;;;;4.20;3.80;;;9.70;91.50;;;;;;5053231;28;21005;-60
2023/03/29 08:48:11;;;;;;;6.20;5.10;;;9.70;91.20;;;;;;5053344;28;20432;-60
2023/03/29 08:50:40;;;;;;;4.80;4.30;;;9.80;91.10;;;;;;5053553;28;20439;-62
2023/03/29 08:53:11;;;;;;;5.90;4.47;;;9.80;90.70;;;;;;5053043;28;20557;-61
2023/03/29 08:55:42;;;;;;;5.20;4.37;;;9.80;90.50;;;;;;5052964;28;20468;-62
2023/03/29 08:58:14;;;;;;;5.33;4.83;;;9.90;90.50;;;;;;5056437;28;20440;-61
2023/03/29 09:00:46;;;;;;;5.23;4.73;;;9.90;90.30;;;;;;5056437;28;20432;-61
2023/03/29 09:03:21;;;;;;;5.47;4.93;;;9.90;90.50;;;;;;5056338;28;20914;-62
2023/03/29 09:05:50;;;;;;;7.30;4.97;;;10.00;89.60;;;;;;5056337;28;20979;-62
2023/03/29 09:08:18;;;;;;;5.10;4.60;;;10.20;89.20;;;;;;5056209;28;20547;-62
2023/03/29 09:10:48;;;;;;;5.67;5.10;;;10.30;88.20;;;;;;5056192;28;20447;-63
2023/03/29 09:13:27;;;;;;;4.93;4.40;;;10.30;87.70;;;;;;5056522;28;20491;-61
2023/03/29 09:16:04;;;;;;;4.60;4.07;;;10.40;87.30;;;;;;5056226;28;20518;-62
2023/03/29 09:18:40;;;;;;;9.70;4.37;;;10.60;86.40;;;;;;5056186;28;20486;-62
2023/03/29 09:21:15;;;;;;;6.67;4.30;;;10.60;85.10;;;;;;5056729;28;20428;-61
2023/03/29 09:24:03;;;;;;;5.00;3.90;;;10.50;84.80;;;;;;5060826;28;20432;-62
2023/03/29 09:26:39;;;;;;;5.70;4.53;;;10.40;85.60;;;;;;5065536;28;20471;-61
2023/03/29 09:29:22;;;;;;;5.80;4.37;;;10.40;86.40;;;;;;5066452;28;20438;-62
2023/03/29 09:31:51;;;;;;;5.60;4.60;;;10.50;86.30;;;;;;5062131;28;20475;-62
2023/03/29 09:34:23;;;;;;;5.10;4.60;;;10.60;85.60;;;;;;5063318;28;20448;-61
2023/03/29 09:36:54;;;;;;;8.43;4.70;;;10.60;85.00;;;;;;5062376;28;20432;-62
2023/03/29 09:39:22;;;;;;;4.20;3.80;;;10.50;84.70;;;;;;5058747;28;20454;-64
2023/03/29 09:41:55;;;;;;;8.90;4.70;;;10.40;85.10;;;;;;5056715;28;20436;-60
2023/03/29 09:44:24;;;;;;;8.23;4.90;;;10.40;85.60;;;;;;5056743;28;20437;-62
2023/03/29 09:46:55;;;;;;;4.23;3.83;;;10.50;85.50;;;;;;5056359;28;20447;-62
2023/03/29 09:49:28;;;;;;;4.47;3.97;;;10.60;85.30;;;;;;5055823;28;20428;-62
2023/03/29 09:51:59;;;;;;;6.60;4.40;;;10.60;84.90;;;;;;5056251;28;20468;-62
2023/03/29 09:54:26;;;;;;;4.97;4.40;;;10.60;85.20;;;;;;5057154;28;20444;-63
2023/03/29 09:56:53;;;;;;;4.60;3.47;;;10.60;85.70;;;;;;5055801;28;20451;-62
2023/03/29 09:59:20;;;;;;;7.30;4.20;;;10.70;85.70;;;;;;5055229;28;20535;-64
2023/03/29 10:01:47;;;;;;;3.67;3.37;;;10.80;85.60;;;;;;5055502;28;20443;-64
2023/03/29 10:04:15;;;;;;;6.10;4.10;;;10.80;85.70;;;;;;5055193;28;20962;-63
2023/03/29 10:06:48;;;;;;;5.60;3.80;;;11.00;85.50;;;;;;5055847;28;20475;-63
2023/03/29 10:09:18;;;;;;;7.30;4.30;;;11.10;85.10;;;;;;5055296;28;20451;-63
2023/03/29 10:11:49;;;;;;;6.30;4.30;;;11.20;84.30;;;;;;5055055;28;20844;-63
2023/03/29 10:14:19;;;;;;;5.50;3.77;;;11.30;84.10;;;;;;5055314;28;20432;-63
2023/03/29 10:16:46;;;;;;;4.30;3.87;;;11.20;84.10;;;;;;5055140;28;20449;-62
2023/03/29 10:19:20;;;;;;;6.53;4.17;;;11.20;84.60;;;;;;5054912;28;20850;-64
2023/03/29 10:21:48;;;;;;;5.57;4.30;;;11.20;84.70;;;;;;5055661;28;20490;-61
2023/03/29 10:24:20;;;;;;;3.83;3.30;;;11.20;85.20;;;;;;5054924;28;20827;-63
2023/03/29 10:26:48;;;;;;;4.90;4.20;;;11.20;85.40;;;;;;5055505;28;20431;-63
2023/03/29 10:29:15;;;;;;;4.83;3.70;;;11.20;84.90;;;;;;5056002;28;20448;-62
2023/03/29 10:31:43;;;;;;;4.30;3.90;;;11.00;85.60;;;;;;5055013;28;20521;-62
2023/03/29 10:34:14;;;;;;;4.63;4.23;;;10.80;86.80;;;;;;5054892;28;20444;-62
2023/03/29 10:36:45;;;;;;;4.90;3.50;;;10.70;88.80;;;;;;5055023;28;20503;-63
2023/03/29 10:39:15;;;;;;;6.83;5.10;;;10.80;90.10;;;;;;5055100;28;20437;-63
2023/03/29 10:41:43;;;;;;;4.40;3.90;;;10.90;90.50;;;;;;5055591;28;20474;-62
2023/03/29 10:44:27;;;;;;;5.33;3.73;;;11.00;90.70;;;;;;5055342;28;20452;-62
2023/03/29 10:46:54;;;;;;;4.63;4.20;;;11.30;90.60;;;;;;5055321;28;20437;-62
2023/03/29 10:49:24;;;;;;;7.50;6.80;;;11.50;89.90;;;;;;5055118;28;20942;-63
2023/03/29 10:51:53;;;;;;;7.63;4.87;;;11.70;89.50;;;;;;5054725;28;20523;-64
2023/03/29 10:54:23;;;;;;;5.27;4.77;;;11.90;89.00;;;;;;5054463;28;20495;-61
2023/03/29 10:56:55;;;;;;;9.00;3.50;;;12.10;88.00;;;;;;5055493;28;20428;-62
2023/03/29 10:59:28;;;;;;;4.17;3.77;;;12.20;87.80;;;;;;5055364;28;20428;-64
2023/03/29 11:02:25;;;;;;;6.50;3.93;;;12.40;86.80;;;;;;5054575;28;20471;-62
2023/03/29 11:05:04;;;;;;;6.00;4.13;;;12.50;85.20;;;;;;5055412;28;20468;-64
2023/03/29 11:07:46;;;;;;;5.77;4.60;;;12.60;84.90;;;;;;5055018;28;20424;-63
2023/03/29 11:10:31;;;;;;;4.70;4.20;;;12.70;85.10;;;;;;5054837;28;20507;-63
2023/03/29 11:13:07;;;;;;;5.80;4.50;;;12.80;84.50;;;;;;5055264;28;20468;-65
2023/03/29 11:15:46;;;;;;;25.40;14.40;;;12.90;83.50;;;;;;5068808;22;20487;-63
2023/03/29 11:18:30;;;;;;;10.47;6.47;;;13.00;83.70;;;;;;5054730;28;20430;-65
2023/03/29 11:21:06;;;;;;;7.90;5.20;;;13.30;82.50;;;;;;5053929;28;20794;-63
2023/03/29 11:23:48;;;;;;;8.43;6.17;;;13.50;80.60;;;;;;5054045;28;20893;-62
2023/03/29 11:26:19;;;;;;;7.90;4.27;;;13.70;79.40;;;;;;5054893;28;20475;-62
2023/03/29 11:28:52;;;;;;;5.73;4.40;;;13.90;77.50;;;;;;5055373;28;20444;-62
2023/03/29 11:31:29;;;;;;;7.03;4.80;;;13.90;76.10;;;;;;5054827;28;20425;-61
2023/03/29 11:34:08;;;;;;;6.20;4.77;;;13.90;75.90;;;;;;5054686;28;20482;-63
2023/03/29 11:36:41;;;;;;;7.93;3.73;;;14.10;75.00;;;;;;5054017;28;20482;-63
2023/03/29 11:39:20;;;;;;;5.90;4.10;;;14.10;73.60;;;;;;5054248;28;20424;-63
2023/03/29 11:41:50;;;;;;;5.10;4.60;;;14.00;72.90;;;;;;5053818;28;20439;-63
2023/03/29 11:44:20;;;;;;;7.33;4.27;;;13.90;73.90;;;;;;5054270;28;20779;-62
2023/03/29 11:46:51;;;;;;;9.57;6.80;;;13.90;73.80;;;;;;5053972;28;20831;-63
2023/03/29 11:49:23;;;;;;;5.50;4.77;;;13.90;72.70;;;;;;5054397;28;20433;-63
2023/03/29 11:51:59;;;;;;;5.90;5.23;;;14.00;73.20;;;;;;5054518;28;20486;-63
2023/03/29 11:54:33;;;;;;;8.07;4.33;;;14.20;72.90;;;;;;5054524;28;20429;-63
2023/03/29 11:57:04;;;;;;;8.47;5.10;;;14.40;71.10;;;;;;5054289;28;20468;-62
2023/03/29 11:59:35;;;;;;;6.10;5.10;;;14.70;70.60;;;;;;5054352;28;20462;-60
2023/03/29 12:02:10;;;;;;;6.50;4.97;;;15.00;68.60;;;;;;5054773;28;20428;-59
2023/03/29 12:04:42;;;;;;;7.40;5.00;;;15.20;67.80;;;;;;5054839;28;20428;-65
2023/03/29 12:07:15;;;;;;;8.17;5.80;;;15.40;66.70;;;;;;5054553;28;20495;-64
2023/03/29 12:09:48;;;;;;;9.40;5.40;;;15.30;65.80;;;;;;5054341;28;20432;-65
2023/03/29 12:12:20;;;;;;;7.07;5.57;;;15.20;65.80;;;;;;5054575;28;20567;-63
2023/03/29 12:14:55;;;;;;;8.73;5.50;;;14.90;65.50;;;;;;5053897;28;20429;-62
2023/03/29 12:17:28;;;;;;;7.03;5.70;;;14.80;66.70;;;;;;5055450;28;20455;-63
2023/03/29 12:20:04;;;;;;;6.50;5.50;;;14.60;66.80;;;;;;5055885;28;20420;-61
2023/03/29 12:22:32;;;;;;;9.50;6.13;;;14.60;67.10;;;;;;5054125;28;20429;-64
2023/03/29 12:25:02;;;;;;;6.13;5.17;;;14.60;67.30;;;;;;5054426;28;20494;-62
2023/03/29 12:27:32;;;;;;;7.30;5.27;;;14.50;67.10;;;;;;5054414;28;20493;-62
2023/03/29 12:30:34;;;;;;;7.47;5.97;;;14.50;68.00;;;;;;5054968;28;20462;-64
2023/03/29 12:33:26;;;;;;;9.37;5.10;;;14.60;68.00;;;;;;5058401;28;20467;-64
2023/03/29 12:36:16;;;;;;;7.40;5.97;;;14.60;67.80;;;;;;5058141;28;20460;-66
2023/03/29 12:38:44;;;;;;;9.20;4.70;;;14.80;68.00;;;;;;5057838;28;20455;-64
2023/03/29 12:41:17;;;;;;;6.37;4.90;;;15.00;67.70;;;;;;5057823;28;20448;-62
2023/03/29 12:43:45;;;;;;;10.73;5.50;;;15.20;66.80;;;;;;5057570;28;20529;-62
2023/03/29 12:46:17;;;;;;;6.10;4.33;;;15.20;66.20;;;;;;5058394;28;20464;-63
2023/03/29 12:48:46;;;;;;;8.53;5.67;;;15.10;66.50;;;;;;5058762;28;20455;-62
2023/03/29 12:51:16;;;;;;;5.13;4.60;;;14.90;67.00;;;;;;5058756;28;20535;-66
2023/03/29 12:53:44;;;;;;;4.60;4.20;;;14.70;67.20;;;;;;5058939;28;20494;-68
2023/03/29 12:56:16;;;;;;;5.80;5.03;;;14.50;68.20;;;;;;5058784;28;20513;-64
2023/03/29 12:59:07;;;;;;;7.10;5.03;;;14.30;69.00;;;;;;5057231;28;20420;-63
2023/03/29 13:01:36;;;;;;;5.53;4.10;;;14.10;70.20;;;;;;5046508;28;20458;-65
2023/03/29 13:04:16;;;;;;;6.27;4.50;;;13.90;71.50;;;;;;5056656;28;20432;-65
2023/03/29 13:07:02;;;;;;;7.10;4.80;;;13.80;72.80;;;;;;5056796;28;20459;-63
2023/03/29 13:09:34;;;;;;;4.40;4.00;;;13.70;74.60;;;;;;5056385;28;20428;-62
2023/03/29 13:12:08;;;;;;;6.10;4.10;;;13.50;77.20;;;;;;5056771;28;20424;-61